Time;durP1;ratioP1;P1;durP2;ratioP2;P2;SDS_P1;SDS_P2;PMS_P1;PMS_P2;Temp;Humidity;BMP_temperature;BMP_pressure;BME280_temperature;BME280_humidity;BME280_pressure;Samples;Min_cycle;Max_cycle;Signal;HPM_P1;HPM_P2
2023/06/15 00:00:46;;;;;;;4.55;2.65;;;15.60;92.20;;;;;;5076733;28;20203;-89
2023/06/15 00:03:12;;;;;;;5.75;3.13;;;15.60;92.20;;;;;;5076412;28;20247;-89
2023/06/15 00:05:38;;;;;;;5.07;3.20;;;15.50;92.50;;;;;;5076876;28;20216;-89
2023/06/15 00:08:04;;;;;;;5.53;2.88;;;15.50;92.60;;;;;;5076328;28;20173;-89
2023/06/15 00:10:30;;;;;;;4.93;3.08;;;15.40;92.50;;;;;;5076555;28;20612;-89
2023/06/15 00:12:56;;;;;;;5.65;3.53;;;15.30;92.60;;;;;;5076142;28;20181;-89
2023/06/15 00:15:22;;;;;;;5.03;3.03;;;15.20;92.90;;;;;;5076388;28;20239;-89
2023/06/15 00:17:48;;;;;;;5.15;3.05;;;15.20;92.90;;;;;;5076324;28;20181;-89
2023/06/15 00:20:14;;;;;;;6.05;3.30;;;15.00;93.20;;;;;;5076315;28;20181;-89
2023/06/15 00:22:41;;;;;;;6.55;3.33;;;14.80;93.40;;;;;;5075801;28;20173;-89
2023/06/15 00:25:10;;;;;;;9.60;3.08;;;14.80;93.50;;;;;;5076070;28;20193;-88
2023/06/15 00:27:36;;;;;;;3.83;2.78;;;14.80;93.50;;;;;;5076021;28;20180;-88
2023/06/15 00:30:03;;;;;;;4.47;2.97;;;14.80;93.70;;;;;;5075972;28;20242;-88
2023/06/15 00:32:29;;;;;;;7.03;3.65;;;14.80;93.90;;;;;;5076057;28;20188;-89
2023/06/15 00:34:55;;;;;;;5.07;2.88;;;14.80;93.80;;;;;;5075534;28;20213;-89
2023/06/15 00:37:20;;;;;;;5.95;3.25;;;14.80;93.70;;;;;;5075794;28;20181;-89
2023/06/15 00:39:46;;;;;;;4.13;3.25;;;14.70;93.80;;;;;;5075812;28;20234;-89
2023/06/15 00:42:12;;;;;;;6.13;3.22;;;14.70;94.00;;;;;;5075800;28;20177;-89
2023/06/15 00:44:37;;;;;;;4.03;2.85;;;14.70;93.90;;;;;;5075541;28;20184;-89
2023/06/15 00:47:04;;;;;;;5.20;3.20;;;14.60;94.00;;;;;;5075722;28;20176;-88
2023/06/15 00:49:32;;;;;;;4.80;2.80;;;14.60;94.00;;;;;;5075576;28;20192;-89
2023/06/15 00:52:00;;;;;;;7.10;3.35;;;14.50;94.30;;;;;;5075527;28;20177;-89
2023/06/15 00:54:26;;;;;;;7.07;3.55;;;14.50;94.40;;;;;;5074867;28;20264;-89
2023/06/15 00:56:53;;;;;;;4.43;3.10;;;14.40;94.60;;;;;;5075495;28;20207;-88
2023/06/15 00:59:19;;;;;;;6.82;3.30;;;14.30;94.90;;;;;;5075593;28;20191;-89
2023/06/15 01:01:47;;;;;;;3.90;3.08;;;14.20;95.00;;;;;;5075609;28;20273;-89
2023/06/15 01:04:14;;;;;;;8.23;3.50;;;14.00;95.10;;;;;;5075577;28;20489;-89
2023/06/15 01:06:51;;;;;;;5.53;3.17;;;14.00;95.30;;;;;;5075406;28;20650;-88
2023/06/15 01:09:20;;;;;;;6.85;3.25;;;13.90;95.30;;;;;;5075052;28;20197;-88
2023/06/15 01:14:24;;;;;;;5.35;3.40;;;13.90;95.80;;;;;;5298074;22;20245;-86
2023/06/15 01:16:54;;;;;;;3.97;2.75;;;13.90;96.10;;;;;;5076027;28;20179;-86
2023/06/15 01:19:38;;;;;;;4.13;3.45;;;13.70;96.10;;;;;;5075847;28;20161;-86
2023/06/15 01:22:24;;;;;;;7.55;3.20;;;13.70;96.50;;;;;;5074738;28;20176;-87
2023/06/15 01:25:08;;;;;;;4.35;3.10;;;13.60;96.60;;;;;;5075971;28;20192;-86
2023/06/15 01:27:36;;;;;;;5.63;3.33;;;13.50;96.80;;;;;;5074485;28;20192;-86
2023/06/15 01:30:04;;;;;;;5.32;3.10;;;13.50;96.70;;;;;;5074027;28;20181;-87
2023/06/15 01:32:32;;;;;;;4.63;3.33;;;13.50;96.90;;;;;;5075600;28;20891;-87
2023/06/15 01:34:57;;;;;;;5.63;3.67;;;13.50;97.00;;;;;;5074167;28;20216;-87
2023/06/15 01:37:23;;;;;;;3.85;3.13;;;13.40;97.10;;;;;;5074431;28;20522;-87
2023/06/15 01:39:49;;;;;;;4.40;3.42;;;13.30;97.50;;;;;;5074435;28;20177;-87
2023/06/15 01:42:15;;;;;;;3.65;2.90;;;13.20;97.70;;;;;;5075332;28;20173;-86
2023/06/15 01:44:41;;;;;;;6.97;3.22;;;13.10;97.90;;;;;;5074416;28;20224;-86
2023/06/15 01:47:08;;;;;;;5.03;3.22;;;13.20;97.70;;;;;;5074278;28;20173;-86
2023/06/15 01:49:34;;;;;;;3.75;3.10;;;13.20;97.40;;;;;;5075329;28;20201;-87
2023/06/15 01:52:00;;;;;;;9.32;3.67;;;13.30;97.40;;;;;;5075585;28;20178;-86
2023/06/15 01:54:26;;;;;;;6.10;3.47;;;13.30;97.30;;;;;;5075056;28;20205;-86
2023/06/15 01:56:52;;;;;;;4.35;3.08;;;13.20;97.80;;;;;;5074196;28;20173;-87
2023/06/15 01:59:18;;;;;;;6.75;3.42;;;13.10;98.10;;;;;;5073253;28;20203;-86
2023/06/15 02:01:44;;;;;;;7.00;3.60;;;13.00;98.30;;;;;;5074979;28;20245;-86
2023/06/15 02:04:10;;;;;;;4.38;3.15;;;13.00;98.50;;;;;;5074990;28;20177;-86
2023/06/15 02:06:36;;;;;;;3.60;3.10;;;12.90;98.80;;;;;;5073701;28;20177;-86
2023/06/15 02:09:02;;;;;;;4.50;3.50;;;12.80;98.80;;;;;;5074850;28;20169;-86
2023/06/15 02:11:28;;;;;;;3.67;3.10;;;12.80;98.90;;;;;;5073252;28;20629;-85
2023/06/15 02:13:54;;;;;;;8.73;3.50;;;12.80;98.90;;;;;;5071927;28;20220;-86
2023/06/15 02:16:19;;;;;;;6.95;3.30;;;12.70;99.00;;;;;;5073452;28;20583;-86
2023/06/15 02:18:47;;;;;;;8.43;3.75;;;12.70;99.20;;;;;;5074842;28;20540;-85
2023/06/15 02:21:13;;;;;;;5.00;3.20;;;12.60;99.50;;;;;;5073270;28;20181;-85
2023/06/15 02:23:39;;;;;;;3.38;3.08;;;12.40;99.90;;;;;;5073203;28;20177;-85
2023/06/15 02:26:05;;;;;;;5.45;3.42;;;12.30;99.90;;;;;;5073044;28;20185;-86
2023/06/15 02:28:31;;;;;;;7.70;3.63;;;12.30;99.90;;;;;;5072896;28;20196;-85
2023/06/15 02:30:57;;;;;;;9.40;3.28;;;12.40;99.90;;;;;;5073028;28;20215;-85
2023/06/15 02:33:25;;;;;;;4.03;3.30;;;12.40;99.80;;;;;;5073031;28;20181;-86
2023/06/15 02:35:51;;;;;;;9.30;3.83;;;12.50;99.90;;;;;;5074199;28;20177;-87
2023/06/15 02:38:17;;;;;;;4.70;3.42;;;12.60;99.50;;;;;;5073211;28;20173;-86
2023/06/15 02:40:42;;;;;;;5.55;3.30;;;12.60;99.60;;;;;;5074198;28;20264;-86
2023/06/15 02:43:09;;;;;;;6.32;3.65;;;12.70;99.40;;;;;;5074007;28;20173;-86
2023/06/15 02:45:36;;;;;;;4.97;3.40;;;12.60;99.60;;;;;;5074507;28;20169;-87
2023/06/15 02:48:02;;;;;;;5.43;3.30;;;12.60;99.90;;;;;;5073344;28;20180;-86
2023/06/15 02:50:27;;;;;;;7.95;3.22;;;12.50;99.90;;;;;;5074296;28;20173;-86
2023/06/15 02:52:53;;;;;;;4.85;3.20;;;12.30;99.90;;;;;;5073032;28;20181;-86
2023/06/15 02:55:21;;;;;;;4.93;3.20;;;12.20;99.90;;;;;;5074078;28;20545;-86
2023/06/15 02:57:47;;;;;;;3.83;3.05;;;12.10;99.90;;;;;;5073023;28;20244;-87
2023/06/15 03:00:13;;;;;;;4.85;3.42;;;12.10;99.90;;;;;;5072589;28;20172;-86
2023/06/15 03:02:41;;;;;;;3.78;3.38;;;12.20;99.90;;;;;;5073027;28;20173;-86
2023/06/15 03:05:08;;;;;;;5.97;3.20;;;12.20;99.90;;;;;;5073009;28;20185;-86
2023/06/15 03:07:33;;;;;;;7.10;3.60;;;12.20;99.90;;;;;;5074311;28;20230;-86
2023/06/15 03:09:59;;;;;;;7.25;3.20;;;12.10;99.90;;;;;;5073748;28;20199;-86
2023/06/15 03:12:25;;;;;;;6.95;3.88;;;12.10;99.90;;;;;;5072745;28;20188;-86
2023/06/15 03:14:51;;;;;;;6.35;3.40;;;12.10;99.90;;;;;;5072222;28;20307;-86
2023/06/15 03:17:18;;;;;;;4.85;3.20;;;12.10;99.90;;;;;;5074150;28;20162;-87
2023/06/15 03:19:47;;;;;;;3.90;2.92;;;12.00;99.90;;;;;;5072605;28;20185;-87
2023/06/15 03:22:14;;;;;;;4.03;3.40;;;12.00;99.90;;;;;;5072512;28;20752;-86
2023/06/15 03:24:41;;;;;;;7.28;3.60;;;11.90;99.90;;;;;;5073716;28;20185;-86
2023/06/15 03:27:10;;;;;;;4.22;3.38;;;11.80;99.90;;;;;;5074007;28;20256;-86
2023/06/15 03:29:36;;;;;;;6.65;3.58;;;11.80;99.90;;;;;;5073859;28;20336;-87
2023/06/15 03:32:09;;;;;;;8.18;3.60;;;11.70;99.90;;;;;;5073916;28;20197;-87
2023/06/15 03:34:38;;;;;;;5.35;3.83;;;11.60;99.90;;;;;;5072491;28;20208;-87
2023/06/15 03:37:05;;;;;;;5.50;3.63;;;11.60;99.90;;;;;;5072550;28;20177;-86
2023/06/15 03:39:32;;;;;;;4.82;3.72;;;11.50;99.90;;;;;;5072465;28;20173;-86
2023/06/15 03:41:58;;;;;;;4.00;3.47;;;11.50;99.90;;;;;;5073819;28;20505;-87
2023/06/15 03:44:23;;;;;;;6.05;3.80;;;11.40;99.90;;;;;;5072110;28;20189;-86
2023/06/15 03:46:49;;;;;;;7.88;4.07;;;11.40;99.90;;;;;;5073709;28;20169;-86
2023/06/15 03:49:15;;;;;;;7.65;3.58;;;11.50;99.90;;;;;;5072405;28;20189;-86
2023/06/15 03:51:41;;;;;;;6.80;3.60;;;11.50;99.90;;;;;;5072186;28;20177;-87
2023/06/15 03:54:07;;;;;;;3.75;3.45;;;11.50;99.90;;;;;;5072248;28;20228;-87
2023/06/15 03:56:40;;;;;;;4.85;3.30;;;11.60;99.90;;;;;;5073789;28;20278;-86
2023/06/15 03:59:05;;;;;;;7.45;3.72;;;11.60;99.90;;;;;;5073314;28;20612;-86
2023/06/15 04:01:32;;;;;;;9.13;3.60;;;11.60;99.90;;;;;;5072405;28;20223;-86
2023/06/15 04:03:58;;;;;;;7.15;4.10;;;11.70;99.90;;;;;;5072299;28;20655;-85
2023/06/15 04:06:24;;;;;;;5.38;3.47;;;11.80;99.90;;;;;;5072126;28;20181;-86
2023/06/15 04:08:50;;;;;;;7.25;3.40;;;11.80;99.90;;;;;;5073393;28;20162;-86
2023/06/15 04:11:16;;;;;;;7.88;3.80;;;11.90;99.90;;;;;;5073464;28;20173;-86
2023/06/15 04:13:42;;;;;;;7.03;4.40;;;11.90;99.90;;;;;;5071561;28;20291;-87
2023/06/15 04:16:10;;;;;;;4.97;3.72;;;12.00;99.90;;;;;;5072223;28;20188;-87
2023/06/15 04:18:36;;;;;;;8.38;4.05;;;12.10;99.90;;;;;;5072128;28;20169;-86
2023/06/15 04:21:03;;;;;;;8.63;3.90;;;12.20;99.90;;;;;;5073506;28;20184;-86
2023/06/15 04:23:29;;;;;;;8.65;4.30;;;12.10;99.90;;;;;;5075713;28;20484;-87
2023/06/15 04:25:58;;;;;;;4.88;3.67;;;12.30;99.90;;;;;;5075923;28;20223;-88
2023/06/15 04:28:24;;;;;;;6.75;4.25;;;12.30;99.90;;;;;;5075335;28;20169;-86
2023/06/15 04:31:04;;;;;;;7.70;3.95;;;12.40;99.90;;;;;;5075713;28;20239;-86
2023/06/15 04:33:30;;;;;;;4.00;3.60;;;12.50;99.90;;;;;;5075554;28;20267;-87
2023/06/15 04:35:57;;;;;;;8.20;4.13;;;12.60;99.90;;;;;;5077037;28;20196;-87
2023/06/15 04:38:22;;;;;;;8.02;3.67;;;12.80;99.90;;;;;;5075961;28;20173;-87
2023/06/15 04:40:48;;;;;;;7.90;3.80;;;12.90;99.90;;;;;;5076775;28;20484;-86
2023/06/15 04:43:14;;;;;;;6.47;3.90;;;13.10;99.90;;;;;;5076287;28;20264;-87
2023/06/15 04:45:41;;;;;;;5.43;4.18;;;13.30;99.90;;;;;;5075592;28;20874;-87
2023/06/15 04:48:07;;;;;;;8.32;4.03;;;13.50;99.90;;;;;;5076632;28;20566;-88
2023/06/15 04:50:33;;;;;;;8.50;4.28;;;13.70;99.90;;;;;;5075509;28;20264;-88
2023/06/15 04:52:59;;;;;;;8.80;4.18;;;13.80;99.90;;;;;;5076654;28;20176;-87
2023/06/15 04:55:24;;;;;;;4.25;3.67;;;14.00;99.90;;;;;;5075448;28;20244;-87
2023/06/15 04:57:51;;;;;;;10.30;3.80;;;14.20;99.90;;;;;;5076682;28;20638;-87
2023/06/15 05:00:17;;;;;;;6.75;4.20;;;14.30;99.90;;;;;;5076186;28;20176;-87
2023/06/15 05:02:43;;;;;;;6.97;3.80;;;14.40;99.90;;;;;;5075177;28;20165;-87
2023/06/15 05:05:12;;;;;;;5.35;3.70;;;14.50;99.90;;;;;;5076482;28;20656;-88
2023/06/15 05:07:38;;;;;;;6.80;3.80;;;14.50;99.90;;;;;;5076470;28;20193;-88
2023/06/15 05:10:04;;;;;;;5.80;3.80;;;14.70;99.90;;;;;;5075142;28;20231;-87
2023/06/15 05:12:31;;;;;;;8.77;3.67;;;14.80;99.90;;;;;;5074892;28;20182;-87
2023/06/15 05:14:57;;;;;;;5.53;3.83;;;14.90;99.70;;;;;;5074503;28;20601;-87
2023/06/15 05:17:29;;;;;;;6.03;3.70;;;14.90;99.90;;;;;;5075005;28;20173;-88
2023/06/15 05:19:54;;;;;;;5.28;3.92;;;15.00;99.70;;;;;;5074693;28;20634;-88
2023/06/15 05:22:20;;;;;;;8.82;4.13;;;15.10;99.10;;;;;;5075220;28;20177;-88
2023/06/15 05:24:46;;;;;;;4.63;3.45;;;15.20;98.90;;;;;;5074771;28;20181;-87
2023/06/15 05:27:13;;;;;;;6.68;4.20;;;15.20;98.70;;;;;;5075950;28;20173;-87
2023/06/15 05:29:39;;;;;;;5.78;3.70;;;15.20;98.50;;;;;;5074429;28;20173;-87
2023/06/15 05:32:06;;;;;;;7.07;3.60;;;15.20;98.40;;;;;;5073421;28;20515;-88
2023/06/15 05:34:31;;;;;;;6.10;3.63;;;15.30;98.40;;;;;;5074637;28;20205;-88
2023/06/15 05:37:01;;;;;;;6.47;4.10;;;15.40;98.50;;;;;;5075863;28;20199;-88
2023/06/15 05:39:27;;;;;;;6.28;3.53;;;15.40;98.30;;;;;;5074361;28;20256;-87
2023/06/15 05:41:53;;;;;;;5.28;3.65;;;15.50;98.60;;;;;;5074291;28;20188;-88
2023/06/15 05:44:18;;;;;;;6.82;3.90;;;15.50;98.70;;;;;;5074059;28;20173;-88
2023/06/15 05:46:44;;;;;;;6.15;3.80;;;15.50;98.60;;;;;;5075997;28;20173;-88
2023/06/15 05:49:10;;;;;;;5.15;3.70;;;15.60;98.50;;;;;;5074845;28;20166;-89
2023/06/15 05:51:36;;;;;;;10.20;3.47;;;15.60;98.30;;;;;;5074449;28;20185;-88
2023/06/15 05:54:02;;;;;;;5.00;3.25;;;15.70;97.80;;;;;;5075847;28;20258;-88
2023/06/15 05:56:28;;;;;;;4.65;3.28;;;15.80;98.30;;;;;;5074346;28;20514;-88
2023/06/15 05:58:54;;;;;;;9.13;3.55;;;15.90;98.40;;;;;;5075376;28;20173;-88
2023/06/15 06:01:19;;;;;;;6.82;3.38;;;15.90;97.80;;;;;;5075481;28;20169;-87
2023/06/15 06:03:45;;;;;;;8.82;3.53;;;16.00;96.20;;;;;;5075350;28;20600;-87
2023/06/15 06:06:11;;;;;;;8.65;3.83;;;16.10;96.10;;;;;;5074155;28;20488;-89
2023/06/15 06:08:36;;;;;;;6.78;3.67;;;16.20;96.10;;;;;;5075492;28;20260;-89
2023/06/15 06:11:07;;;;;;;6.50;3.50;;;16.20;96.50;;;;;;5073872;28;20165;-87
2023/06/15 06:13:34;;;;;;;5.15;3.13;;;16.30;96.50;;;;;;5073182;28;20236;-86
2023/06/15 06:16:01;;;;;;;4.80;2.90;;;16.50;96.00;;;;;;5073788;28;20693;-87
2023/06/15 06:18:26;;;;;;;4.15;3.03;;;16.60;95.70;;;;;;5073714;28;20514;-87
2023/06/15 06:20:52;;;;;;;4.63;3.20;;;16.60;95.30;;;;;;5074692;28;20175;-87
2023/06/15 06:23:18;;;;;;;5.88;3.40;;;16.70;94.60;;;;;;5073214;28;20174;-88
2023/06/15 06:25:44;;;;;;;4.35;2.80;;;16.80;94.70;;;;;;5074551;28;20177;-87
2023/06/15 06:28:10;;;;;;;5.43;3.30;;;16.90;94.00;;;;;;5073175;28;20264;-87
2023/06/15 06:30:35;;;;;;;5.30;3.40;;;17.00;93.90;;;;;;5074372;28;20197;-87
2023/06/15 06:33:03;;;;;;;6.03;2.83;;;17.10;93.90;;;;;;5073216;28;20173;-86
2023/06/15 06:35:29;;;;;;;7.93;3.35;;;17.10;93.70;;;;;;5072611;28;20201;-87
2023/06/15 06:37:54;;;;;;;8.23;3.08;;;17.30;93.60;;;;;;5074321;28;20181;-86
2023/06/15 06:40:20;;;;;;;5.05;3.08;;;17.40;93.20;;;;;;5073098;28;20226;-87
2023/06/15 06:42:46;;;;;;;8.13;3.22;;;17.50;93.10;;;;;;5072660;28;20185;-87
2023/06/15 06:45:12;;;;;;;7.78;3.15;;;17.50;92.20;;;;;;5074047;28;20188;-88
2023/06/15 06:47:39;;;;;;;5.38;3.13;;;17.60;92.50;;;;;;5073502;28;20180;-90
2023/06/15 06:50:06;;;;;;;5.82;3.38;;;17.70;92.80;;;;;;5073078;28;20173;-89
2023/06/15 06:52:32;;;;;;;9.02;3.00;;;17.70;93.10;;;;;;5072782;28;20173;-88
2023/06/15 06:54:58;;;;;;;7.90;3.55;;;17.90;92.30;;;;;;5074096;28;20207;-86
2023/06/15 06:57:23;;;;;;;7.35;3.63;;;18.00;91.90;;;;;;5073186;28;20185;-87
2023/06/15 06:59:50;;;;;;;4.93;3.35;;;18.20;91.60;;;;;;5073044;28;20177;-87
2023/06/15 07:02:16;;;;;;;4.22;3.08;;;18.30;92.30;;;;;;5072972;28;20192;-87
2023/06/15 07:04:41;;;;;;;7.30;3.75;;;18.40;92.50;;;;;;5072804;28;20181;-86
2023/06/15 07:07:09;;;;;;;6.13;3.00;;;18.50;92.60;;;;;;5074263;28;20688;-88
2023/06/15 07:09:35;;;;;;;5.93;3.00;;;18.70;92.70;;;;;;5072982;28;20187;-86
2023/06/15 07:12:01;;;;;;;4.47;2.90;;;18.80;93.40;;;;;;5074168;28;20177;-86
2023/06/15 07:14:27;;;;;;;3.40;3.00;;;19.00;92.60;;;;;;5072369;28;20320;-86
2023/06/15 07:16:53;;;;;;;6.85;3.13;;;19.20;92.20;;;;;;5073324;28;20264;-91
2023/06/15 07:19:18;;;;;;;13.13;3.10;;;19.40;91.40;;;;;;5072777;28;20226;-90
2023/06/15 07:21:44;;;;;;;4.40;2.85;;;19.50;90.30;;;;;;5072873;28;20177;-88
2023/06/15 07:24:10;;;;;;;4.78;2.90;;;19.80;90.60;;;;;;5073208;28;20254;-90
2023/06/15 07:26:36;;;;;;;6.47;3.17;;;19.90;90.40;;;;;;5073360;28;20192;-88
2023/06/15 07:29:02;;;;;;;4.28;2.97;;;20.00;90.10;;;;;;5074220;28;20178;-87
2023/06/15 07:31:27;;;;;;;6.60;2.70;;;20.10;88.10;;;;;;5074401;28;20157;-89
2023/06/15 07:33:56;;;;;;;4.30;2.70;;;20.30;88.30;;;;;;5072724;28;20208;-90
2023/06/15 07:36:22;;;;;;;4.57;3.17;;;20.40;87.30;;;;;;5073115;28;20188;-93
2023/06/15 07:38:47;;;;;;;6.97;2.75;;;20.60;87.10;;;;;;5074616;28;20508;-93
2023/06/15 07:41:13;;;;;;;3.35;2.75;;;20.70;85.60;;;;;;5074402;28;20166;-88
2023/06/15 07:43:39;;;;;;;6.20;3.38;;;21.00;87.20;;;;;;5073458;28;20204;-91
2023/06/15 07:46:05;;;;;;;6.70;2.95;;;21.10;87.10;;;;;;5072822;28;20595;-88
2023/06/15 07:48:37;;;;;;;5.10;3.15;;;21.20;84.10;;;;;;5074756;28;20174;-93
2023/06/15 07:51:02;;;;;;;4.38;2.53;;;21.40;84.30;;;;;;5073209;28;20239;-92
2023/06/15 07:53:28;;;;;;;3.95;3.00;;;21.50;86.30;;;;;;5074352;28;20604;-94
2023/06/15 07:55:54;;;;;;;5.05;2.90;;;21.70;83.70;;;;;;5075200;28;20216;-90
2023/06/15 07:58:20;;;;;;;7.47;2.95;;;21.70;82.50;;;;;;5077172;28;20173;-92
2023/06/15 08:00:45;;;;;;;7.57;3.10;;;21.90;83.80;;;;;;5077041;28;20537;-93
2023/06/15 08:03:11;;;;;;;3.60;2.78;;;22.00;84.00;;;;;;5077234;28;20212;-91
2023/06/15 08:05:37;;;;;;;4.03;2.63;;;22.00;83.80;;;;;;5077436;28;20177;-92
2023/06/15 08:08:04;;;;;;;4.70;2.72;;;22.10;85.80;;;;;;5078372;28;20174;-90
2023/06/15 08:10:31;;;;;;;8.13;2.85;;;22.10;83.50;;;;;;5077140;28;20182;-93
2023/06/15 08:12:57;;;;;;;3.40;2.70;;;22.00;83.40;;;;;;5076874;28;20240;-87
2023/06/15 08:15:23;;;;;;;4.88;3.13;;;22.20;84.30;;;;;;5078115;28;20663;-88
2023/06/15 08:17:52;;;;;;;8.63;3.10;;;22.30;83.60;;;;;;5076915;28;20173;-88
2023/06/15 08:20:19;;;;;;;4.82;2.67;;;22.40;83.70;;;;;;5076302;28;20170;-87
2023/06/15 08:22:45;;;;;;;9.73;3.10;;;22.60;85.80;;;;;;5077784;28;20169;-92
2023/06/15 08:25:12;;;;;;;7.28;3.25;;;22.40;82.10;;;;;;5076334;28;20183;-91
2023/06/15 08:27:38;;;;;;;4.85;2.70;;;22.50;83.40;;;;;;5077843;28;20165;-90
2023/06/15 08:30:08;;;;;;;6.68;3.30;;;22.40;85.40;;;;;;5077091;28;20559;-89
2023/06/15 08:32:34;;;;;;;6.07;2.47;;;22.50;83.70;;;;;;5075945;28;20192;-86
2023/06/15 08:34:59;;;;;;;3.67;2.70;;;22.60;81.10;;;;;;5075802;28;20635;-93
2023/06/15 08:37:26;;;;;;;4.47;2.75;;;22.50;80.20;;;;;;5076726;28;20628;-92
2023/06/15 08:39:51;;;;;;;8.23;2.75;;;22.50;78.30;;;;;;5076535;28;20177;-91
2023/06/15 08:42:18;;;;;;;4.50;2.53;;;22.50;81.20;;;;;;5076644;28;20173;-89
2023/06/15 08:44:47;;;;;;;7.70;2.75;;;22.70;80.10;;;;;;5075472;28;20235;-88
2023/06/15 08:47:13;;;;;;;4.97;2.78;;;22.70;81.50;;;;;;5075754;28;20177;-92
2023/06/15 08:49:40;;;;;;;9.65;3.00;;;23.00;82.60;;;;;;5075720;28;20646;-96
2023/06/15 08:52:08;;;;;;;6.07;3.40;;;23.20;80.90;;;;;;5075662;28;20265;-96
2023/06/15 08:54:35;;;;;;;3.20;2.33;;;23.40;80.20;;;;;;5075655;28;20201;-94
2023/06/15 08:57:01;;;;;;;7.40;2.95;;;23.40;82.80;;;;;;5075753;28;20279;-89
2023/06/15 08:59:29;;;;;;;12.02;3.15;;;23.50;79.10;;;;;;5075644;28;20173;-88
2023/06/15 09:01:55;;;;;;;4.68;2.70;;;23.60;75.00;;;;;;5076981;28;20197;-89
2023/06/15 09:04:21;;;;;;;5.13;2.67;;;23.60;76.70;;;;;;5075360;28;20288;-92
2023/06/15 09:06:49;;;;;;;3.70;2.38;;;23.30;74.60;;;;;;5075055;28;20181;-88
2023/06/15 09:09:15;;;;;;;5.10;2.85;;;23.20;77.70;;;;;;5075424;28;20949;-90
2023/06/15 09:11:44;;;;;;;3.88;2.13;;;23.30;77.20;;;;;;5076563;28;20291;-88
2023/06/15 09:14:11;;;;;;;7.25;2.63;;;23.30;76.40;;;;;;5075044;28;20237;-92
2023/06/15 09:16:38;;;;;;;5.50;2.72;;;23.30;75.90;;;;;;5076475;28;20174;-90
2023/06/15 09:19:11;;;;;;;7.05;2.63;;;23.30;77.30;;;;;;5074954;28;20187;-92
2023/06/15 09:21:48;;;;;;;5.00;2.42;;;23.20;77.80;;;;;;5075483;28;20231;-89
2023/06/15 09:24:16;;;;;;;4.72;2.25;;;23.30;74.10;;;;;;5075104;28;20510;-93
2023/06/15 09:26:45;;;;;;;4.53;2.75;;;23.30;72.60;;;;;;5074948;28;20280;-94
2023/06/15 09:29:11;;;;;;;9.93;2.30;;;23.50;74.70;;;;;;5074843;28;20272;-96
2023/06/15 09:31:38;;;;;;;6.82;2.45;;;23.80;72.40;;;;;;5075207;28;20173;-93
2023/06/15 09:34:05;;;;;;;6.88;2.60;;;23.90;76.20;;;;;;5074918;28;20291;-90
2023/06/15 09:36:51;;;;;;;3.47;2.08;;;24.00;71.80;;;;;;5074774;28;20207;-92
2023/06/15 09:39:24;;;;;;;2.83;2.22;;;24.00;71.70;;;;;;5075152;28;20162;-94
2023/06/15 09:41:56;;;;;;;5.97;2.40;;;24.20;71.70;;;;;;5075135;28;20653;-94
2023/06/15 09:44:23;;;;;;;5.68;2.50;;;24.50;70.30;;;;;;5074268;28;20393;-90
2023/06/15 09:46:53;;;;;;;6.38;2.53;;;24.40;69.00;;;;;;5076488;28;20614;-89
2023/06/15 09:49:25;;;;;;;4.07;2.13;;;24.40;71.40;;;;;;5076127;28;20215;-94
2023/06/15 09:51:52;;;;;;;5.63;2.30;;;24.50;68.90;;;;;;5074612;28;20169;-93
2023/06/15 09:54:22;;;;;;;2.95;2.03;;;24.50;67.10;;;;;;5074998;28;20212;-95
2023/06/15 09:56:50;;;;;;;3.88;2.47;;;24.50;70.50;;;;;;5074860;28;20169;-89
2023/06/15 09:59:18;;;;;;;4.57;2.22;;;24.70;70.60;;;;;;5074778;28;20264;-87
2023/06/15 10:01:49;;;;;;;4.85;1.98;;;24.80;68.20;;;;;;5074795;28;20600;-90
2023/06/15 10:04:17;;;;;;;5.88;2.25;;;24.90;69.20;;;;;;5075276;28;20169;-88
2023/06/15 10:06:46;;;;;;;6.32;2.33;;;25.00;67.10;;;;;;5073906;28;20185;-94
2023/06/15 10:09:17;;;;;;;6.32;2.28;;;25.30;69.80;;;;;;5075635;28;20238;-88
2023/06/15 10:11:45;;;;;;;4.10;2.33;;;25.40;68.70;;;;;;5074197;28;20169;-87
2023/06/15 10:14:50;;;;;;;4.50;2.30;;;25.00;66.90;;;;;;5074008;28;20596;-90
2023/06/15 10:17:16;;;;;;;14.80;2.65;;;24.70;66.50;;;;;;5070635;28;20534;-91
2023/06/15 10:19:46;;;;;;;5.18;2.53;;;24.80;67.80;;;;;;5073444;28;20185;-87
2023/06/15 10:22:17;;;;;;;5.15;2.10;;;25.00;69.30;;;;;;5075364;28;20165;-87
2023/06/15 10:24:45;;;;;;;5.05;2.53;;;25.30;67.20;;;;;;5074705;28;20175;-86
2023/06/15 10:27:11;;;;;;;3.65;2.47;;;25.20;69.00;;;;;;5073957;28;20624;-90
2023/06/15 10:30:07;;;;;;;6.93;2.40;;;25.10;68.70;;;;;;5073309;28;20177;-87
2023/06/15 10:32:46;;;;;;;6.93;2.50;;;24.70;69.70;;;;;;5073380;28;20207;-88
2023/06/15 10:35:23;;;;;;;4.30;2.50;;;24.20;68.50;;;;;;5073334;28;20291;-87
2023/06/15 10:38:00;;;;;;;6.75;2.70;;;24.10;70.60;;;;;;5074647;28;20218;-88
2023/06/15 10:40:34;;;;;;;3.90;2.13;;;24.40;69.90;;;;;;5073706;28;20192;-94
2023/06/15 10:43:02;;;;;;;5.00;2.35;;;24.70;70.60;;;;;;5074624;28;20153;-91
2023/06/15 10:45:29;;;;;;;5.70;2.58;;;24.90;68.90;;;;;;5074394;28;20169;-89
2023/06/15 10:48:00;;;;;;;3.67;2.33;;;25.20;69.10;;;;;;5073180;28;20184;-86
2023/06/15 10:50:27;;;;;;;3.42;2.15;;;25.00;66.90;;;;;;5072558;28;20251;-89
2023/06/15 10:52:54;;;;;;;5.35;2.33;;;24.50;67.10;;;;;;5073211;28;20195;-89
2023/06/15 10:55:23;;;;;;;5.20;2.38;;;24.40;67.50;;;;;;5073049;28;20225;-89
2023/06/15 10:58:09;;;;;;;5.65;2.30;;;24.60;69.30;;;;;;5074453;28;20174;-88
2023/06/15 11:00:41;;;;;;;3.53;2.00;;;24.80;66.00;;;;;;5073741;28;20222;-87
2023/06/15 11:03:26;;;;;;;3.67;2.50;;;24.70;69.40;;;;;;5072573;28;20187;-87
2023/06/15 11:06:15;;;;;;;5.43;2.28;;;24.50;69.70;;;;;;5073085;28;20177;-87
2023/06/15 11:08:48;;;;;;;4.38;2.20;;;24.70;69.20;;;;;;5074130;28;20165;-89
2023/06/15 11:11:26;;;;;;;4.38;2.30;;;24.90;69.50;;;;;;5072771;28;20185;-87
2023/06/15 11:13:55;;;;;;;4.30;2.53;;;25.20;67.70;;;;;;5072499;28;20220;-88
2023/06/15 11:16:35;;;;;;;7.57;2.50;;;25.30;67.00;;;;;;5072920;28;20668;-88
2023/06/15 11:19:10;;;;;;;4.68;2.40;;;25.40;66.80;;;;;;5073979;28;20244;-87
2023/06/15 11:21:40;;;;;;;4.13;2.38;;;25.40;68.30;;;;;;5073854;28;20176;-89
2023/06/15 11:24:07;;;;;;;6.18;2.35;;;25.20;68.00;;;;;;5072882;28;20177;-88
2023/06/15 11:26:38;;;;;;;5.45;2.45;;;24.90;68.80;;;;;;5074006;28;20173;-88
2023/06/15 11:29:07;;;;;;;8.02;2.80;;;25.10;68.80;;;;;;5073406;28;20181;-85
2023/06/15 11:31:35;;;;;;;5.40;2.22;;;25.00;68.10;;;;;;5076701;28;20179;-88
2023/06/15 11:34:01;;;;;;;5.88;2.80;;;24.50;67.90;;;;;;5076811;28;20231;-87
2023/06/15 11:36:27;;;;;;;2.95;2.28;;;24.20;67.70;;;;;;5076740;28;20192;-89
2023/06/15 11:38:53;;;;;;;4.18;2.50;;;23.80;69.30;;;;;;5076979;28;20181;-90
2023/06/15 11:41:20;;;;;;;6.43;2.20;;;23.60;68.20;;;;;;5076786;28;20172;-87
2023/06/15 11:43:50;;;;;;;7.95;2.13;;;23.40;68.60;;;;;;5076782;28;20641;-88
2023/06/15 11:46:18;;;;;;;3.38;2.40;;;23.80;70.50;;;;;;5076600;28;20188;-87
2023/06/15 11:48:44;;;;;;;9.57;2.60;;;24.30;70.60;;;;;;5077657;28;20219;-90
2023/06/15 11:51:12;;;;;;;4.80;2.30;;;24.60;68.40;;;;;;5076650;28;20215;-87
2023/06/15 11:53:42;;;;;;;3.78;2.35;;;24.80;66.10;;;;;;5077457;28;20193;-87
2023/06/15 11:56:16;;;;;;;7.03;2.50;;;24.60;65.50;;;;;;5076441;28;20689;-88
2023/06/15 11:58:43;;;;;;;2.78;2.00;;;24.30;67.70;;;;;;5076677;28;20667;-89
2023/06/15 12:01:14;;;;;;;5.38;2.28;;;24.20;67.70;;;;;;5076210;28;20189;-87
2023/06/15 12:03:47;;;;;;;6.15;2.55;;;24.20;70.50;;;;;;5077793;28;20154;-86
2023/06/15 12:06:18;;;;;;;3.78;2.53;;;24.50;68.20;;;;;;5076432;28;20223;-89
2023/06/15 12:08:45;;;;;;;7.05;2.35;;;24.90;66.90;;;;;;5076306;28;20173;-87
2023/06/15 12:11:12;;;;;;;6.05;2.33;;;25.20;68.20;;;;;;5076040;28;20181;-87
2023/06/15 12:13:39;;;;;;;4.65;2.40;;;25.40;66.60;;;;;;5075407;28;20244;-86
2023/06/15 12:16:06;;;;;;;7.00;2.30;;;25.50;66.50;;;;;;5075712;28;20213;-89
2023/06/15 12:18:32;;;;;;;7.57;2.50;;;25.80;65.70;;;;;;5076226;28;20318;-89
2023/06/15 12:21:03;;;;;;;3.70;2.45;;;25.50;65.20;;;;;;5075530;28;20188;-89
2023/06/15 12:23:31;;;;;;;3.13;2.35;;;25.00;65.20;;;;;;5076249;28;20258;-89
2023/06/15 12:25:57;;;;;;;6.13;2.75;;;24.70;66.10;;;;;;5076371;28;20183;-89
2023/06/15 12:28:25;;;;;;;8.73;2.38;;;24.60;66.90;;;;;;5075871;28;20512;-88
2023/06/15 12:30:55;;;;;;;4.22;2.22;;;24.60;67.80;;;;;;5076872;28;20169;-88
2023/06/15 12:33:30;;;;;;;6.65;2.38;;;24.70;68.60;;;;;;5077287;28;20536;-89
2023/06/15 12:35:57;;;;;;;3.45;2.30;;;24.80;69.10;;;;;;5075810;28;20220;-87
2023/06/15 12:38:24;;;;;;;6.55;2.40;;;24.70;67.50;;;;;;5076960;28;20173;-87
2023/06/15 12:40:52;;;;;;;6.43;2.30;;;24.60;68.40;;;;;;5075093;28;20185;-89
2023/06/15 12:43:18;;;;;;;8.13;2.30;;;24.40;69.10;;;;;;5075688;28;20208;-87
2023/06/15 12:45:44;;;;;;;4.00;2.45;;;24.40;69.80;;;;;;5075738;28;20173;-90
2023/06/15 12:48:11;;;;;;;5.95;2.50;;;24.30;69.90;;;;;;5075819;28;20187;-86
2023/06/15 12:50:36;;;;;;;5.18;2.60;;;24.30;70.20;;;;;;5076674;28;20177;-88